createdAt,value
2023-02-02T00:01:25.663Z,100583.34
2023-02-02T00:03:54.157Z,100589.91
2023-02-02T00:06:23.788Z,100594.56
2023-02-02T00:08:53.778Z,100600.00
2023-02-02T00:11:21.858Z,100596.50
2023-02-02T00:13:49.964Z,100604.69
2023-02-02T00:16:37.675Z,100611.69
2023-02-02T00:19:07.805Z,100614.31
2023-02-02T00:21:36.221Z,100626.75
2023-02-02T00:24:06.466Z,100632.97
2023-02-02T00:26:34.643Z,100629.44
2023-02-02T00:29:02.951Z,100634.81
2023-02-02T00:31:31.194Z,100637.72
2023-02-02T00:34:00.042Z,100650.31
2023-02-02T00:36:28.191Z,100644.19
2023-02-02T00:38:56.276Z,100660.50
2023-02-02T00:41:25.748Z,100658.75
2023-02-02T00:44:07.725Z,100657.97
2023-02-02T00:46:35.793Z,100667.84
2023-02-02T00:49:03.880Z,100676.81
2023-02-02T00:51:31.969Z,100673.41
2023-02-02T00:54:00.122Z,100682.41
2023-02-02T00:56:29.568Z,100689.59
2023-02-02T00:58:57.779Z,100690.59
2023-02-02T01:01:25.884Z,100696.00
2023-02-02T01:03:54.047Z,100712.00
2023-02-02T01:06:22.338Z,100714.03
2023-02-02T01:08:50.540Z,100720.22
2023-02-02T01:11:18.685Z,100711.34
2023-02-02T01:13:48.157Z,100721.09
2023-02-02T01:16:16.265Z,100724.66
2023-02-02T01:18:44.563Z,100731.00
2023-02-02T01:21:13.541Z,100741.72
2023-02-02T01:23:41.829Z,100746.28
2023-02-02T01:26:11.260Z,100744.63
2023-02-02T01:28:39.864Z,100746.50
2023-02-02T01:31:11.786Z,100743.91
2023-02-02T01:33:40.077Z,100749.41
2023-02-02T01:36:11.937Z,100760.25
2023-02-02T01:38:40.270Z,100762.22
2023-02-02T01:41:08.418Z,100765.88
2023-02-02T01:43:56.186Z,100770.44
2023-02-02T01:46:27.896Z,100770.53
2023-02-02T01:49:04.454Z,100778.63
2023-02-02T01:51:39.780Z,100783.97
2023-02-02T01:54:10.500Z,100794.75
2023-02-02T01:56:42.630Z,100800.88
2023-02-02T01:59:11.587Z,100793.66
2023-02-02T02:01:41.077Z,100798.03
2023-02-02T02:04:09.375Z,100801.44
2023-02-02T02:06:37.470Z,100804.84
2023-02-02T02:09:07.121Z,100817.44
2023-02-02T02:11:36.664Z,100825.59
2023-02-02T02:14:25.570Z,100835.47
2023-02-02T02:17:13.285Z,100830.31
2023-02-02T02:20:26.355Z,100829.56
2023-02-02T02:23:37.929Z,100836.84
2023-02-02T02:26:37.535Z,100837.84
2023-02-02T02:29:30.181Z,100832.59
2023-02-02T02:32:15.021Z,100840.69
2023-02-02T02:34:55.002Z,100834.47
2023-02-02T02:37:31.193Z,100847.97
2023-02-02T02:40:03.461Z,100846.28
2023-02-02T02:42:35.906Z,100850.84
2023-02-02T02:45:06.030Z,100866.03
2023-02-02T02:47:37.345Z,100863.50
2023-02-02T02:50:06.338Z,100865.44
2023-02-02T02:52:35.822Z,100869.84
2023-02-02T02:55:05.498Z,100877.84
2023-02-02T02:57:50.545Z,100886.69
2023-02-02T03:00:37.114Z,100886.53
2023-02-02T03:03:15.287Z,100887.31
2023-02-02T03:05:51.005Z,100889.81
2023-02-02T03:08:24.470Z,100887.81
2023-02-02T03:10:53.231Z,100887.56
2023-02-02T03:13:21.361Z,100889.25
2023-02-02T03:15:49.472Z,100893.66
2023-02-02T03:18:20.281Z,100893.53
2023-02-02T03:20:48.400Z,100906.72
2023-02-02T03:23:16.589Z,100901.31
2023-02-02T03:25:44.817Z,100910.22
2023-02-02T03:28:13.374Z,100904.78
2023-02-02T03:30:42.777Z,100918.03
2023-02-02T03:33:11.859Z,100922.44
2023-02-02T03:35:41.445Z,100925.84
2023-02-02T03:38:09.979Z,100927.50
2023-02-02T03:40:38.072Z,100937.19
2023-02-02T03:43:06.398Z,100936.19
2023-02-02T03:45:35.526Z,100951.28
2023-02-02T03:48:05.265Z,100960.03
2023-02-02T03:50:36.439Z,100957.22
2023-02-02T03:53:06.060Z,100952.63
2023-02-02T03:55:35.077Z,100968.81
2023-02-02T03:58:03.145Z,100968.00
2023-02-02T04:00:31.220Z,100963.78
2023-02-02T04:03:02.472Z,100967.56
2023-02-02T04:05:30.700Z,100972.91
2023-02-02T04:07:58.797Z,100980.25
2023-02-02T04:10:28.261Z,100974.13
2023-02-02T04:12:56.336Z,100975.19
2023-02-02T04:15:24.692Z,100974.50
2023-02-02T04:17:52.946Z,100983.69
2023-02-02T04:20:21.253Z,100989.38
2023-02-02T04:22:49.300Z,100982.53
2023-02-02T04:25:17.427Z,100990.72
2023-02-02T04:27:46.871Z,100997.19
2023-02-02T04:30:15.055Z,100998.22
2023-02-02T04:32:43.142Z,101011.69
2023-02-02T04:35:11.329Z,101010.81
2023-02-02T04:37:39.400Z,101020.53
2023-02-02T04:40:08.816Z,101020.47
2023-02-02T04:42:36.874Z,101030.13
2023-02-02T04:45:07.657Z,101012.09
2023-02-02T04:47:35.783Z,101027.91
2023-02-02T04:50:03.892Z,101024.19
2023-02-02T04:52:31.971Z,101031.41
2023-02-02T04:55:00.133Z,101037.69
2023-02-02T04:57:28.236Z,101033.25
2023-02-02T04:59:56.380Z,101043.91
2023-02-02T05:02:25.836Z,101040.28
2023-02-02T05:04:53.935Z,101046.44
2023-02-02T05:07:22.028Z,101048.19
2023-02-02T05:09:50.115Z,101056.19
2023-02-02T05:12:18.182Z,101054.38
2023-02-02T05:14:46.273Z,101058.66
2023-02-02T05:17:14.372Z,101055.94
2023-02-02T05:19:43.985Z,101064.78
2023-02-02T05:22:12.062Z,101062.91
2023-02-02T05:24:40.161Z,101074.47
2023-02-02T05:27:08.206Z,101069.91
2023-02-02T05:29:36.303Z,101073.44
2023-02-02T05:32:04.622Z,101085.94
2023-02-02T05:34:32.790Z,101088.69
2023-02-02T05:37:02.356Z,101086.91
2023-02-02T05:39:30.445Z,101091.38
2023-02-02T05:41:58.529Z,101098.47
2023-02-02T05:44:26.607Z,101106.41
2023-02-02T05:46:54.699Z,101104.53
2023-02-02T05:49:22.761Z,101106.16
2023-02-02T05:51:53.897Z,101101.75
2023-02-02T05:54:23.370Z,101107.84
2023-02-02T05:56:53.115Z,101105.88
2023-02-02T05:59:21.208Z,101106.63
2023-02-02T06:01:49.957Z,101110.13
2023-02-02T06:04:18.137Z,101116.34
2023-02-02T06:06:47.946Z,101124.31
2023-02-02T06:09:16.128Z,101126.03
2023-02-02T06:11:46.394Z,101122.34
2023-02-02T06:14:14.481Z,101122.22
2023-02-02T06:16:42.645Z,101138.16
2023-02-02T06:19:10.743Z,101141.75
2023-02-02T06:21:38.846Z,101142.56
2023-02-02T06:24:07.719Z,101152.47
2023-02-02T06:26:35.896Z,101151.66
2023-02-02T06:29:05.608Z,101149.97
2023-02-02T06:31:34.224Z,101153.59
2023-02-02T06:34:02.557Z,101155.47
2023-02-02T06:36:30.725Z,101162.69
2023-02-02T06:38:59.039Z,101168.97
2023-02-02T06:41:27.211Z,101164.56
2023-02-02T06:43:55.330Z,101169.09
2023-02-02T06:46:24.837Z,101186.19
2023-02-02T06:48:52.926Z,101184.47
2023-02-02T06:51:21.051Z,101193.41
2023-02-02T06:53:50.057Z,101184.53
2023-02-02T06:56:18.546Z,101204.19
2023-02-02T06:58:46.638Z,101199.88
2023-02-02T07:01:15.647Z,101207.22
2023-02-02T07:03:48.939Z,101212.63
2023-02-02T07:06:18.846Z,101227.88
2023-02-02T07:08:48.933Z,101230.66
2023-02-02T07:11:31.025Z,101234.38
2023-02-02T07:13:59.455Z,101231.78
2023-02-02T07:16:27.541Z,101236.38
2023-02-02T07:18:57.052Z,101231.19
2023-02-02T07:21:28.313Z,101236.59
2023-02-02T07:23:56.599Z,101242.00
2023-02-02T07:26:24.727Z,101241.25
2023-02-02T07:28:53.195Z,101249.31
2023-02-02T07:31:23.036Z,101271.63
2023-02-02T07:33:51.611Z,101258.38
2023-02-02T07:36:23.381Z,101268.22
2023-02-02T07:38:54.619Z,101277.22
2023-02-02T07:41:23.201Z,101278.25
2023-02-02T07:43:51.499Z,101276.59
2023-02-02T07:46:19.977Z,101296.25
2023-02-02T07:48:48.142Z,101286.50
2023-02-02T07:51:18.227Z,101300.72
2023-02-02T07:53:48.899Z,101304.28
2023-02-02T07:56:18.850Z,101315.00
2023-02-02T07:58:47.135Z,101315.94
2023-02-02T08:01:17.149Z,101322.19
2023-02-02T08:03:45.762Z,101329.25
2023-02-02T08:06:16.294Z,101335.38
2023-02-02T08:08:44.539Z,101338.97
2023-02-02T08:11:15.418Z,101339.06
2023-02-02T08:13:44.206Z,101342.59
2023-02-02T08:16:13.158Z,101354.09
2023-02-02T08:18:42.300Z,101361.22
2023-02-02T08:21:10.932Z,101363.75
2023-02-02T08:23:40.497Z,101369.75
2023-02-02T08:26:10.588Z,101374.78
2023-02-02T08:28:40.425Z,101372.69
2023-02-02T08:31:10.224Z,101372.53
2023-02-02T08:33:39.533Z,101383.06
2023-02-02T08:36:12.528Z,101385.50
2023-02-02T08:38:40.630Z,101387.19
2023-02-02T08:41:09.984Z,101383.41
2023-02-02T08:43:39.817Z,101394.00
2023-02-02T08:46:09.102Z,101404.59
2023-02-02T08:48:37.477Z,101403.53
2023-02-02T08:51:06.642Z,101408.78
2023-02-02T08:53:35.145Z,101411.50
2023-02-02T08:56:05.475Z,101414.06
2023-02-02T08:58:34.872Z,101416.75
2023-02-02T09:01:09.363Z,101410.41
2023-02-02T09:03:40.126Z,101421.88
2023-02-02T09:06:09.954Z,101425.47
2023-02-02T09:08:38.108Z,101423.78
2023-02-02T09:11:07.599Z,101427.94
2023-02-02T09:13:35.788Z,101433.94
2023-02-02T09:16:05.400Z,101430.09
2023-02-02T09:18:34.934Z,101439.56
2023-02-02T09:21:04.656Z,101442.88
2023-02-02T09:23:33.251Z,101439.09
2023-02-02T09:26:10.407Z,101449.41
2023-02-02T09:28:39.453Z,101458.91
2023-02-02T09:31:08.676Z,101469.97
2023-02-02T09:33:38.617Z,101471.25
2023-02-02T09:36:08.529Z,101484.28
2023-02-02T09:38:37.076Z,101479.34
2023-02-02T09:41:28.226Z,101483.38
2023-02-02T09:44:04.003Z,101489.22
2023-02-02T09:46:40.110Z,101488.16
2023-02-02T09:49:12.458Z,101495.25
2023-02-02T09:51:42.939Z,101501.16
2023-02-02T09:54:17.770Z,101508.69
2023-02-02T09:56:50.820Z,101511.81
2023-02-02T09:59:24.516Z,101512.22
2023-02-02T10:01:56.153Z,101518.22
2023-02-02T10:04:28.868Z,101519.97
2023-02-02T10:06:59.401Z,101523.69
2023-02-02T10:09:35.779Z,101539.06
2023-02-02T10:12:07.587Z,101536.44
2023-02-02T10:14:42.280Z,101534.75
2023-02-02T10:17:26.409Z,101546.16
2023-02-02T10:19:59.930Z,101550.78
2023-02-02T10:22:30.568Z,101561.28
2023-02-02T10:24:59.544Z,101563.78
2023-02-02T10:27:34.506Z,101563.81
2023-02-02T10:30:04.686Z,101572.06
2023-02-02T10:32:36.358Z,101576.22
2023-02-02T10:35:17.761Z,101573.06
2023-02-02T10:37:50.341Z,101576.69
2023-02-02T10:40:28.066Z,101574.97
2023-02-02T10:43:27.747Z,101581.66
2023-02-02T10:45:57.750Z,101587.75
2023-02-02T10:48:32.640Z,101583.69
2023-02-02T10:51:07.285Z,101586.84
2023-02-02T10:53:35.596Z,101595.63
2023-02-02T10:56:07.001Z,101588.63
2023-02-02T10:58:41.318Z,101591.59
2023-02-02T11:01:11.577Z,101591.97
2023-02-02T11:03:40.200Z,101588.28
2023-02-02T11:06:27.438Z,101595.94
2023-02-02T11:08:59.489Z,101593.47
2023-02-02T11:11:29.372Z,101595.38
2023-02-02T11:14:02.374Z,101601.00
2023-02-02T11:16:42.011Z,101600.75
2023-02-02T11:19:24.319Z,101600.75
2023-02-02T11:21:56.262Z,101594.59
2023-02-02T11:24:27.706Z,101603.28
2023-02-02T11:26:58.180Z,101603.63
2023-02-02T11:29:29.720Z,101603.25
2023-02-02T11:31:58.124Z,101609.38
2023-02-02T11:34:28.565Z,101616.28
2023-02-02T11:37:14.035Z,101613.03
2023-02-02T11:39:42.632Z,101609.19
2023-02-02T11:42:16.125Z,101609.94
2023-02-02T11:44:47.731Z,101617.31
2023-02-02T11:47:26.375Z,101608.88
2023-02-02T11:49:55.803Z,101613.81
2023-02-02T11:52:32.706Z,101615.25
2023-02-02T11:55:02.818Z,101617.72
2023-02-02T11:57:31.612Z,101618.59
2023-02-02T12:00:17.768Z,101619.28
2023-02-02T12:02:47.621Z,101615.19
2023-02-02T12:05:35.079Z,101614.09
2023-02-02T12:08:13.894Z,101615.91
2023-02-02T12:10:45.940Z,101625.28
2023-02-02T12:13:21.191Z,101625.06
2023-02-02T12:15:53.572Z,101626.28
2023-02-02T12:18:38.156Z,101627.50
2023-02-02T12:21:07.500Z,101632.19
2023-02-02T12:23:48.657Z,101625.41
2023-02-02T12:26:22.958Z,101628.34
2023-02-02T12:29:12.661Z,101630.25
2023-02-02T12:31:52.848Z,101623.03
2023-02-02T12:34:30.046Z,101631.00
2023-02-02T12:37:04.036Z,101636.16
2023-02-02T12:39:45.238Z,101632.56
2023-02-02T12:42:27.115Z,101628.91
2023-02-02T12:45:07.899Z,101628.19
2023-02-02T12:47:41.794Z,101634.16
2023-02-02T12:50:29.063Z,101637.19
2023-02-02T12:53:13.305Z,101643.38
2023-02-02T12:55:45.701Z,101643.75
2023-02-02T12:58:21.270Z,101646.13
2023-02-02T13:01:10.830Z,101649.41
2023-02-02T13:03:50.710Z,101651.66
2023-02-02T13:06:34.389Z,101649.53
2023-02-02T13:09:07.371Z,101653.34
2023-02-02T13:11:42.338Z,101651.72
2023-02-02T13:14:13.972Z,101659.97
2023-02-02T13:16:48.393Z,101660.72
2023-02-02T13:19:33.201Z,101660.44
2023-02-02T13:22:02.975Z,101651.09
2023-02-02T13:24:34.292Z,101660.19
2023-02-02T13:27:05.967Z,101662.06
2023-02-02T13:29:47.928Z,101662.56
2023-02-02T13:32:23.143Z,101661.25
2023-02-02T13:34:54.975Z,101665.56
2023-02-02T13:37:29.284Z,101662.88
2023-02-02T13:39:59.973Z,101668.66
2023-02-02T13:42:38.133Z,101664.94
2023-02-02T13:45:16.819Z,101662.03
2023-02-02T13:47:50.220Z,101671.81
2023-02-02T13:50:20.713Z,101673.97
2023-02-02T13:53:09.916Z,101667.28
2023-02-02T13:56:03.296Z,101674.09
2023-02-02T13:58:54.820Z,101684.00
2023-02-02T14:01:26.232Z,101680.25
2023-02-02T14:03:56.491Z,101692.50
2023-02-02T14:06:26.436Z,101690.19
2023-02-02T14:08:57.081Z,101690.56
2023-02-02T14:11:30.361Z,101691.22
2023-02-02T14:14:18.384Z,101688.59
2023-02-02T14:16:53.351Z,101684.91
2023-02-02T14:19:50.329Z,101679.66
2023-02-02T14:22:34.244Z,101691.47
2023-02-02T14:25:02.370Z,101693.69
2023-02-02T14:27:59.060Z,101700.72
2023-02-02T14:30:33.742Z,101701.81
2023-02-02T14:33:47.503Z,101704.88
2023-02-02T14:36:17.932Z,101714.13
2023-02-02T14:39:04.844Z,101712.91
2023-02-02T14:42:08.166Z,101713.38
2023-02-02T14:44:38.011Z,101716.47
2023-02-02T14:47:25.205Z,101717.72
2023-02-02T14:49:58.190Z,101726.22
2023-02-02T14:52:27.539Z,101711.97
2023-02-02T14:54:58.036Z,101723.72
2023-02-02T14:57:28.227Z,101731.09
2023-02-02T14:59:59.983Z,101722.34
2023-02-02T15:02:34.750Z,101731.41
2023-02-02T15:05:36.022Z,101728.78
2023-02-02T15:08:15.218Z,101726.25
2023-02-02T15:11:27.884Z,101737.28
2023-02-02T15:14:07.276Z,101741.06
2023-02-02T15:16:38.602Z,101744.06
2023-02-02T15:19:14.609Z,101751.50
2023-02-02T15:21:43.757Z,101751.91
2023-02-02T15:24:23.637Z,101757.59
2023-02-02T15:26:54.515Z,101771.22
2023-02-02T15:29:33.409Z,101766.03
2023-02-02T15:32:02.327Z,101764.38
2023-02-02T15:34:37.671Z,101768.94
2023-02-02T15:37:08.408Z,101765.59
2023-02-02T15:39:41.235Z,101782.84
2023-02-02T15:42:34.993Z,101784.03
2023-02-02T15:45:03.277Z,101785.25
2023-02-02T15:47:33.960Z,101788.16
2023-02-02T15:50:02.848Z,101792.94
2023-02-02T15:52:35.519Z,101791.47
2023-02-02T15:55:21.207Z,101792.66
2023-02-02T15:57:49.831Z,101800.13
2023-02-02T16:00:26.641Z,101811.25
2023-02-02T16:02:58.259Z,101805.34
2023-02-02T16:05:41.205Z,101805.63
2023-02-02T16:08:15.583Z,101804.16
2023-02-02T16:10:46.687Z,101804.41
2023-02-02T16:13:27.419Z,101810.97
2023-02-02T16:15:57.177Z,101819.16
2023-02-02T16:18:25.367Z,101817.56
2023-02-02T16:20:54.181Z,101829.38
2023-02-02T16:23:25.485Z,101831.38
2023-02-02T16:25:57.006Z,101836.00
2023-02-02T16:28:25.816Z,101840.72
2023-02-02T16:30:54.174Z,101832.88
2023-02-02T16:33:29.155Z,101837.56
2023-02-02T16:35:57.659Z,101841.34
2023-02-02T16:38:27.671Z,101840.66
2023-02-02T16:41:08.144Z,101837.31
2023-02-02T16:43:37.978Z,101840.31
2023-02-02T16:46:08.994Z,101837.81
2023-02-02T16:48:38.244Z,101836.25
2023-02-02T16:51:25.547Z,101841.81
2023-02-02T16:53:59.345Z,101840.19
2023-02-02T16:56:31.650Z,101855.53
2023-02-02T16:59:01.291Z,101845.88
2023-02-02T17:01:38.447Z,101852.28
2023-02-02T17:04:08.720Z,101858.59
2023-02-02T17:06:51.383Z,101850.69
2023-02-02T17:09:34.143Z,101857.09
2023-02-02T17:12:09.308Z,101852.72
2023-02-02T17:14:51.987Z,101849.34
2023-02-02T17:17:20.209Z,101852.06
2023-02-02T17:19:48.884Z,101852.13
2023-02-02T17:22:18.484Z,101851.41
2023-02-02T17:24:48.285Z,101858.75
2023-02-02T17:27:20.880Z,101851.72
2023-02-02T17:29:49.114Z,101845.66
2023-02-02T17:32:17.254Z,101844.81
2023-02-02T17:34:46.028Z,101838.59
2023-02-02T17:37:14.117Z,101843.09
2023-02-02T17:39:42.183Z,101838.69
2023-02-02T17:42:18.180Z,101839.66
2023-02-02T17:44:47.918Z,101837.84
2023-02-02T17:47:16.015Z,101828.09
2023-02-02T17:49:44.106Z,101826.31
2023-02-02T17:52:12.309Z,101828.09
2023-02-02T17:54:40.391Z,101820.09
2023-02-02T17:57:08.507Z,101818.31
2023-02-02T17:59:36.633Z,101814.81
2023-02-02T18:02:06.213Z,101815.72
2023-02-02T18:04:34.305Z,101820.19
2023-02-02T18:07:03.646Z,101812.19
2023-02-02T18:09:34.090Z,101818.41
2023-02-02T18:12:02.222Z,101817.50
2023-02-02T18:14:30.404Z,101817.38
2023-02-02T18:16:58.507Z,101814.56
2023-02-02T18:19:27.991Z,101823.25
2023-02-02T18:21:56.102Z,101827.53
2023-02-02T18:24:24.231Z,101813.09
2023-02-02T18:26:52.384Z,101818.22
2023-02-02T18:29:20.485Z,101817.16
2023-02-02T18:31:48.748Z,101820.53
2023-02-02T18:34:16.877Z,101818.66
2023-02-02T18:36:46.446Z,101821.16
2023-02-02T18:39:14.526Z,101827.28
2023-02-02T18:41:42.665Z,101819.16
2023-02-02T18:44:10.726Z,101815.50
2023-02-02T18:46:38.838Z,101817.22
2023-02-02T18:49:06.976Z,101795.78
2023-02-02T18:51:35.129Z,101793.91
2023-02-02T18:54:04.906Z,101783.16
2023-02-02T18:56:33.019Z,101783.13
2023-02-02T18:59:01.131Z,101778.66
2023-02-02T19:01:30.025Z,101779.47
2023-02-02T19:03:58.323Z,101770.53
2023-02-02T19:06:45.078Z,101783.91
2023-02-02T19:09:17.183Z,101782.97
2023-02-02T19:11:46.833Z,101783.84
2023-02-02T19:14:16.118Z,101770.44
2023-02-02T19:16:45.560Z,101765.09
2023-02-02T19:19:22.934Z,101761.50
2023-02-02T19:21:53.066Z,101757.03
2023-02-02T19:24:22.757Z,101752.53
2023-02-02T19:26:51.496Z,101750.72
2023-02-02T19:29:22.114Z,101752.47
2023-02-02T19:31:54.288Z,101745.31
2023-02-02T19:34:24.048Z,101738.16
2023-02-02T19:36:52.378Z,101739.03
2023-02-02T19:39:28.245Z,101731.06
2023-02-02T19:42:00.160Z,101723.91
2023-02-02T19:44:32.095Z,101723.97
2023-02-02T19:47:00.612Z,101726.69
2023-02-02T19:49:32.903Z,101724.94
2023-02-02T19:52:01.660Z,101715.19
2023-02-02T19:54:34.862Z,101723.22
2023-02-02T19:57:08.379Z,101719.63
2023-02-02T19:59:36.496Z,101709.72
2023-02-02T20:02:38.664Z,101707.03
2023-02-02T20:05:16.068Z,101693.66
2023-02-02T20:07:44.183Z,101691.81
2023-02-02T20:10:20.374Z,101690.03
2023-02-02T20:12:48.874Z,101689.09
2023-02-02T20:15:33.359Z,101693.41
2023-02-02T20:18:03.416Z,101688.94
2023-02-02T20:20:35.776Z,101679.13
2023-02-02T20:23:04.164Z,101675.63
2023-02-02T20:25:33.648Z,101673.91
2023-02-02T20:28:07.929Z,101677.47
2023-02-02T20:30:36.282Z,101674.84
2023-02-02T20:33:18.584Z,101670.34
2023-02-02T20:35:46.712Z,101673.03
2023-02-02T20:38:19.112Z,101672.06
2023-02-02T20:40:48.645Z,101660.53
2023-02-02T20:43:16.792Z,101658.81
2023-02-02T20:45:45.039Z,101670.38
2023-02-02T20:48:14.250Z,101665.94
2023-02-02T20:50:42.845Z,101657.91
2023-02-02T20:53:11.095Z,101650.78
2023-02-02T20:55:39.229Z,101648.16
2023-02-02T20:58:09.831Z,101657.97
2023-02-02T21:00:38.241Z,101645.56
2023-02-02T21:03:06.345Z,101651.75
2023-02-02T21:05:34.682Z,101653.53
2023-02-02T21:08:02.795Z,101651.78
2023-02-02T21:10:31.580Z,101648.28
2023-02-02T21:12:59.682Z,101645.63
2023-02-02T21:15:29.190Z,101649.16
2023-02-02T21:17:57.327Z,101650.97
2023-02-02T21:20:25.703Z,101643.88
2023-02-02T21:22:56.071Z,101645.75
2023-02-02T21:25:24.456Z,101623.50
2023-02-02T21:27:52.548Z,101630.59
2023-02-02T21:30:20.846Z,101621.75
2023-02-02T21:32:50.405Z,101612.03
2023-02-02T21:35:18.657Z,101605.81
2023-02-02T21:37:51.177Z,101601.38
2023-02-02T21:40:27.691Z,101596.03
2023-02-02T21:42:58.622Z,101586.25
2023-02-02T21:45:33.840Z,101593.44
2023-02-02T21:48:06.249Z,101581.06
2023-02-02T21:50:36.633Z,101575.81
2023-02-02T21:53:18.285Z,101575.03
2023-02-02T21:55:47.587Z,101566.25
2023-02-02T21:58:20.649Z,101557.34
2023-02-02T22:00:49.311Z,101545.84
2023-02-02T22:03:31.975Z,101523.59
2023-02-02T22:06:28.696Z,101527.19
2023-02-02T22:09:02.647Z,101522.75
2023-02-02T22:11:37.106Z,101504.00
2023-02-02T22:14:16.419Z,101503.16
2023-02-02T22:16:48.629Z,101489.84
2023-02-02T22:19:25.419Z,101477.47
2023-02-02T22:21:54.065Z,101481.94
2023-02-02T22:24:22.315Z,101474.78
2023-02-02T22:26:50.394Z,101477.47
2023-02-02T22:29:21.299Z,101476.53
2023-02-02T22:31:49.483Z,101478.34
2023-02-02T22:34:17.557Z,101469.34
2023-02-02T22:36:47.050Z,101463.09
2023-02-02T22:39:15.136Z,101448.78
2023-02-02T22:41:44.062Z,101434.59
2023-02-02T22:44:12.130Z,101423.97
2023-02-02T22:46:40.288Z,101420.47
2023-02-02T22:49:08.431Z,101413.41
2023-02-02T22:51:36.505Z,101411.66
2023-02-02T22:54:06.142Z,101412.56
2023-02-02T22:56:34.240Z,101384.91
2023-02-02T22:59:03.539Z,101381.31
2023-02-02T23:01:31.622Z,101368.00
2023-02-02T23:03:59.831Z,101363.59
2023-02-02T23:06:27.929Z,101357.44
2023-02-02T23:08:56.004Z,101345.88
2023-02-02T23:11:25.464Z,101351.16
2023-02-02T23:13:53.721Z,101344.84
2023-02-02T23:16:21.872Z,101339.47
2023-02-02T23:18:49.973Z,101328.81
2023-02-02T23:21:18.157Z,101317.28
2023-02-02T23:23:46.249Z,101310.09
2023-02-02T23:26:14.343Z,101299.38
2023-02-02T23:28:43.849Z,101306.44
2023-02-02T23:31:12.007Z,101304.56
2023-02-02T23:33:40.243Z,101309.81
2023-02-02T23:36:08.793Z,101308.06
2023-02-02T23:38:36.890Z,101306.16
2023-02-02T23:41:04.975Z,101301.69
2023-02-02T23:43:33.056Z,101281.16
2023-02-02T23:46:02.642Z,101281.91
2023-02-02T23:48:30.745Z,101275.59
2023-02-02T23:51:00.185Z,101272.81
2023-02-02T23:53:28.527Z,101269.13
2023-02-02T23:55:56.772Z,101270.00
2023-02-02T23:58:24.853Z,101265.41
